Time;durP1;ratioP1;P1;durP2;ratioP2;P2;SDS_P1;SDS_P2;PMS_P1;PMS_P2;Temp;Humidity;BMP_temperature;BMP_pressure;BME280_temperature;BME280_humidity;BME280_pressure;Samples;Min_cycle;Max_cycle;Signal;HPM_P1;HPM_P2
2023/01/22 00:02:16;;;;;;;0.68;0.68;;;;;;;0.18;82.72;102528.91;5217660;28;20054;-81
2023/01/22 00:04:47;;;;;;;0.95;0.95;;;;;;;0.25;82.15;102528.38;5204727;28;20044;-81
2023/01/22 00:07:18;;;;;;;2.47;2.38;;;;;;;0.33;81.58;102536.47;5221588;28;20063;-81
2023/01/22 00:09:48;;;;;;;1.23;1.23;;;;;;;0.31;82.20;102538.97;5237684;28;20048;-81
2023/01/22 00:12:22;;;;;;;0.68;0.68;;;;;;;0.42;81.56;102528.22;5216129;28;20044;-80
2023/01/22 00:14:53;;;;;;;;;;;;;;;0.24;82.32;102524.00;5240079;28;20057;-81
2023/01/22 00:17:25;;;;;;;1.25;1.25;;;;;;;0.35;82.22;102523.63;5218911;28;20509;-80
2023/01/22 00:19:55;;;;;;;1.00;1.00;;;;;;;0.30;81.79;102520.81;5225237;28;20220;-81
2023/01/22 00:22:26;;;;;;;3.25;2.45;;;;;;;0.33;81.74;102517.50;5237819;28;20607;-81
2023/01/22 00:24:56;;;;;;;0.57;0.57;;;;;;;0.25;82.00;102518.03;5229776;28;20038;-81
2023/01/22 00:27:27;;;;;;;1.15;1.15;;;;;;;0.24;82.23;102511.09;5228602;28;20052;-80
2023/01/22 00:30:00;;;;;;;1.65;1.65;;;;;;;0.22;82.75;102517.88;5229783;28;20048;-81
2023/01/22 00:32:39;;;;;;;0.70;0.70;;;;;;;0.38;81.70;102506.56;5248020;28;20136;-80
2023/01/22 00:35:10;;;;;;;1.45;1.45;;;;;;;0.37;81.84;102506.50;5245780;28;20059;-81
2023/01/22 00:37:50;;;;;;;2.55;2.45;;;;;;;0.25;82.01;102499.97;5247433;28;20260;-80
2023/01/22 00:40:20;;;;;;;2.90;1.80;;;;;;;0.37;82.18;102498.75;5235740;28;20040;-82
2023/01/22 00:42:51;;;;;;;1.65;1.55;;;;;;;0.30;81.75;102497.59;5233216;28;20037;-81
2023/01/22 00:45:21;;;;;;;1.55;1.45;;;;;;;0.24;82.30;102497.31;5233446;28;20032;-81
2023/01/22 00:47:52;;;;;;;2.00;1.90;;;;;;;0.11;82.46;102501.06;5232419;28;20045;-81
2023/01/22 00:50:22;;;;;;;1.65;1.63;;;;;;;0.18;82.49;102487.59;5226903;28;20036;-82
2023/01/22 00:52:53;;;;;;;1.05;1.05;;;;;;;0.42;81.58;102498.09;5230311;28;20040;-82
2023/01/22 00:55:23;;;;;;;0.98;0.98;;;;;;;0.28;81.78;102486.31;5233997;28;20032;-81
2023/01/22 00:57:54;;;;;;;1.98;1.42;;;;;;;0.23;82.61;102485.22;5233531;28;20041;-81
2023/01/22 01:00:24;;;;;;;2.00;1.90;;;;;;;0.28;82.10;102487.19;5237143;28;20187;-81
2023/01/22 01:05:44;;;;;;;0.93;0.93;;;;;;;0.26;82.06;102491.41;5235451;28;20073;-79
2023/01/22 01:08:15;;;;;;;3.30;1.58;;;;;;;0.19;82.21;102491.97;5249847;28;20061;-80
2023/01/22 01:10:45;;;;;;;0.95;0.95;;;;;;;0.23;82.20;102501.59;5233118;28;20036;-81
2023/01/22 01:13:16;;;;;;;1.65;1.58;;;;;;;0.20;82.44;102490.25;5224734;28;20182;-82
2023/01/22 01:15:46;;;;;;;1.38;1.33;;;;;;;0.19;82.20;102491.06;5241229;28;20038;-82
2023/01/22 01:18:17;;;;;;;1.45;1.40;;;;;;;0.27;82.19;102487.13;5221877;28;20056;-82
2023/01/22 01:20:52;;;;;;;1.52;1.42;;;;;;;0.21;82.90;102477.41;5224014;28;20032;-81
2023/01/22 01:23:24;;;;;;;3.22;2.95;;;;;;;0.33;82.30;102471.00;5228765;28;20072;-80
2023/01/22 01:25:55;;;;;;;2.70;2.55;;;;;;;0.38;82.38;102478.16;5226724;28;20037;-81
2023/01/22 01:28:27;;;;;;;1.50;1.42;;;;;;;0.26;83.08;102485.34;5243865;28;20029;-80
2023/01/22 01:31:01;;;;;;;1.52;1.42;;;;;;;0.31;82.08;102479.56;5204400;28;20028;-80
2023/01/22 01:33:32;;;;;;;2.95;1.90;;;;;;;0.29;82.68;102476.03;5225759;28;20341;-80
2023/01/22 01:36:10;;;;;;;2.08;1.95;;;;;;;0.23;82.67;102475.78;5205786;28;20086;-81
2023/01/22 01:38:40;;;;;;;1.38;1.38;;;;;;;0.14;83.12;102475.34;5236306;28;20045;-80
2023/01/22 01:41:14;;;;;;;1.73;1.63;;;;;;;0.11;83.43;102470.94;5222732;28;20036;-82
2023/01/22 01:43:46;;;;;;;0.95;0.95;;;;;;;0.33;82.38;102476.19;5228312;28;20041;-80
2023/01/22 01:46:24;;;;;;;1.38;1.35;;;;;;;0.29;82.14;102476.03;5227897;28;20560;-80
2023/01/22 01:48:54;;;;;;;1.13;1.13;;;;;;;0.29;82.53;102463.13;5210960;28;20041;-80
2023/01/22 01:51:31;;;;;;;2.55;1.58;;;;;;;0.28;82.34;102463.97;5226372;28;20047;-80
2023/01/22 01:54:03;;;;;;;1.05;1.05;;;;;;;0.26;82.48;102454.34;5246333;28;20063;-81
2023/01/22 01:56:42;;;;;;;3.38;1.73;;;;;;;0.39;81.80;102455.78;5245966;28;20045;-81
2023/01/22 01:59:18;;;;;;;1.25;1.20;;;;;;;0.35;81.92;102457.34;5231472;28;20233;-80
2023/01/22 02:01:53;;;;;;;1.17;1.17;;;;;;;0.43;81.66;102461.13;5238970;28;20076;-80
2023/01/22 02:04:26;;;;;;;1.70;1.60;;;;;;;0.41;81.52;102456.72;5221777;28;20589;-80
2023/01/22 02:06:56;;;;;;;0.95;0.93;;;;;;;0.30;82.29;102446.81;5218650;28;20045;-81
2023/01/22 02:09:27;;;;;;;1.02;1.02;;;;;;;0.45;81.08;102445.72;5221900;28;20084;-81
2023/01/22 02:11:58;;;;;;;3.13;2.92;;;;;;;0.39;81.39;102442.84;5237220;28;20561;-81
2023/01/22 02:14:32;;;;;;;2.40;2.25;;;;;;;0.33;81.97;102446.09;5221654;28;20028;-81
2023/01/22 02:17:19;;;;;;;1.13;1.13;;;;;;;0.42;82.02;102448.16;5221508;28;20059;-80
2023/01/22 02:19:50;;;;;;;0.77;0.77;;;;;;;0.41;81.63;102443.81;5223412;28;20336;-81
2023/01/22 02:22:30;;;;;;;2.53;2.15;;;;;;;0.33;81.24;102448.66;5219865;28;20522;-81
2023/01/22 02:25:00;;;;;;;1.15;1.15;;;;;;;0.39;81.40;102453.19;5222033;28;20487;-81
2023/01/22 02:30:04;;;;;;;2.05;1.95;;;;;;;0.34;81.85;102462.44;5203078;28;20395;-83
2023/01/22 02:32:35;;;;;;;1.67;1.58;;;;;;;0.53;80.95;102456.38;5199649;28;20099;-82
2023/01/22 02:35:06;;;;;;;3.80;3.47;;;;;;;0.28;81.99;102452.72;5187129;28;20166;-83
2023/01/22 02:37:36;;;;;;;0.88;0.88;;;;;;;0.40;81.33;102442.03;5181682;28;20060;-82
2023/01/22 02:40:07;;;;;;;0.52;0.52;;;;;;;0.44;80.86;102446.53;5200896;28;20108;-82
2023/01/22 02:42:38;;;;;;;0.98;0.98;;;;;;;0.37;81.21;102442.81;5196990;28;20357;-82
2023/01/22 02:45:09;;;;;;;1.52;1.48;;;;;;;0.47;80.51;102446.66;5187474;28;20184;-82
2023/01/22 02:47:39;;;;;;;1.23;1.23;;;;;;;0.33;81.12;102448.66;5200840;28;20140;-82
2023/01/22 02:50:10;;;;;;;4.72;1.70;;;;;;;0.30;82.01;102456.28;5201563;28;20112;-82
2023/01/22 02:52:41;;;;;;;0.85;0.85;;;;;;;0.27;81.68;102453.53;5202824;28;20554;-82
2023/01/22 02:55:12;;;;;;;1.05;1.05;;;;;;;0.34;81.69;102457.28;5202224;28;20444;-81
2023/01/22 02:57:42;;;;;;;1.63;1.58;;;;;;;0.27;81.13;102451.88;5200164;28;21140;-81
2023/01/22 03:00:13;;;;;;;2.40;1.58;;;;;;;0.31;81.26;102453.75;5200557;28;20071;-82
2023/01/22 03:02:45;;;;;;;2.80;2.53;;;;;;;0.34;81.58;102444.38;5192044;28;20122;-82
2023/01/22 03:05:16;;;;;;;1.15;1.15;;;;;;;0.35;81.72;102448.72;5200093;28;20029;-83
2023/01/22 03:07:46;;;;;;;1.05;1.05;;;;;;;0.31;81.38;102443.41;5178910;28;20056;-82
2023/01/22 03:10:19;;;;;;;0.50;0.50;;;;;;;0.44;80.87;102436.22;5186219;28;20132;-83
2023/01/22 03:21:18;;;;;;;0.95;0.95;;;;;;;0.36;80.88;102424.66;5212223;28;20025;-83
2023/01/22 03:23:51;;;;;;;0.60;0.60;;;;;;;0.25;81.17;102417.34;5186489;28;20033;-82
2023/01/22 03:26:22;;;;;;;1.20;1.20;;;;;;;0.19;81.82;102418.78;5205351;28;20029;-82
2023/01/22 03:28:53;;;;;;;1.15;1.15;;;;;;;0.37;81.69;102413.53;5200228;28;20309;-83
2023/01/22 03:31:23;;;;;;;0.93;0.93;;;;;;;0.26;81.66;102418.22;5181007;28;20037;-82
2023/01/22 03:33:54;;;;;;;0.88;0.88;;;;;;;0.18;81.98;102417.91;5184465;28;20034;-82
2023/01/22 03:36:24;;;;;;;0.60;0.60;;;;;;;0.45;81.57;102414.72;5195566;28;20025;-83
2023/01/22 03:38:55;;;;;;;0.82;0.82;;;;;;;0.38;81.36;102421.34;5213975;28;20108;-82
2023/01/22 03:41:25;;;;;;;11.40;2.28;;;;;;;0.26;81.78;102424.28;5199872;28;20036;-83
2023/01/22 03:44:00;;;;;;;3.03;2.83;;;;;;;0.28;82.26;102430.41;5184474;28;20033;-82
2023/01/22 03:46:31;;;;;;;1.20;1.20;;;;;;;0.18;82.09;102423.06;5199689;28;20051;-82
2023/01/22 03:49:01;;;;;;;2.10;2.00;;;;;;;0.27;81.75;102423.47;5202453;28;20040;-82
2023/01/22 03:51:32;;;;;;;1.90;1.80;;;;;;;0.30;81.52;102422.72;5183337;28;20029;-82
2023/01/22 03:54:03;;;;;;;0.60;0.60;;;;;;;0.28;81.72;102420.06;5199505;28;20033;-82
2023/01/22 03:56:34;;;;;;;2.40;2.20;;;;;;;0.23;81.28;102413.81;5212997;28;20033;-84
2023/01/22 03:59:05;;;;;;;0.70;0.70;;;;;;;0.23;81.25;102421.56;5213697;28;20476;-83
2023/01/22 04:01:36;;;;;;;0.85;0.80;;;;;;;0.39;80.85;102419.63;5180271;28;20069;-81
2023/01/22 04:04:06;;;;;;;0.98;0.98;;;;;;;0.33;81.14;102415.09;5216070;28;20044;-82
2023/01/22 04:06:37;;;;;;;0.80;0.80;;;;;;;0.39;81.02;102414.44;5183244;28;20052;-82
2023/01/22 04:09:07;;;;;;;2.17;1.58;;;;;;;0.24;81.22;102415.56;5211292;28;20041;-82
2023/01/22 04:11:38;;;;;;;1.42;1.42;;;;;;;0.11;81.51;102424.50;5214124;28;20346;-83
2023/01/22 04:14:08;;;;;;;2.08;1.33;;;;;;;0.22;81.95;102417.19;5201783;28;20495;-82
2023/01/22 04:16:39;;;;;;;0.77;0.75;;;;;;;0.28;81.19;102424.34;5211453;28;20128;-82
2023/01/22 04:19:09;;;;;;;1.77;1.67;;;;;;;0.31;81.31;102409.84;5197008;28;20064;-82
2023/01/22 04:21:40;;;;;;;0.50;0.50;;;;;;;0.14;81.81;102423.72;5195077;28;20069;-82
2023/01/22 04:24:10;;;;;;;1.40;1.40;;;;;;;0.20;81.96;102423.13;5219038;28;20610;-81
2023/01/22 04:26:41;;;;;;;0.50;0.50;;;;;;;0.18;81.82;102414.41;5188099;28;20068;-82
2023/01/22 04:29:11;;;;;;;1.48;1.40;;;;;;;0.14;81.66;102416.00;5205412;28;20162;-82
2023/01/22 04:31:42;;;;;;;4.63;1.70;;;;;;;0.09;82.21;102417.50;5222106;28;20439;-83
2023/01/22 04:34:12;;;;;;;0.75;0.75;;;;;;;0.29;81.37;102414.06;5214199;28;20033;-82
2023/01/22 04:36:43;;;;;;;1.05;1.05;;;;;;;0.17;81.90;102423.88;5196382;28;20046;-82
2023/01/22 04:39:13;;;;;;;2.83;1.52;;;;;;;0.24;81.70;102422.44;5211047;28;20105;-82
2023/01/22 04:41:44;;;;;;;0.40;0.40;;;;;;;0.25;81.54;102417.34;5209484;28;20044;-83
2023/01/22 04:44:14;;;;;;;0.93;0.93;;;;;;;0.06;81.37;102418.25;5187208;28;20029;-83
2023/01/22 04:46:45;;;;;;;0.95;0.95;;;;;;;0.12;81.89;102421.09;5216314;28;20415;-82
2023/01/22 04:49:15;;;;;;;1.70;1.60;;;;;;;0.23;81.65;102416.38;5203799;28;20113;-82
2023/01/22 04:51:46;;;;;;;1.45;1.38;;;;;;;0.12;81.19;102415.94;5211725;28;20060;-83
2023/01/22 04:54:16;;;;;;;1.17;1.17;;;;;;;0.22;81.22;102430.09;5204821;28;20462;-83
2023/01/22 04:56:47;;;;;;;1.45;1.45;;;;;;;0.19;81.25;102432.56;5204086;28;20030;-82
2023/01/22 04:59:17;;;;;;;1.23;1.23;;;;;;;0.06;82.50;102431.16;5186006;28;20049;-82
2023/01/22 05:01:49;;;;;;;14.38;2.70;;;;;;;0.23;81.12;102438.75;5183441;28;20526;-82
2023/01/22 05:04:20;;;;;;;1.13;1.13;;;;;;;0.10;81.86;102429.59;5199748;28;20425;-82
2023/01/22 05:06:51;;;;;;;1.35;1.35;;;;;;;0.24;80.93;102420.75;5187676;28;20289;-82
2023/01/22 05:09:23;;;;;;;1.15;1.15;;;;;;;0.21;81.41;102424.88;5217083;28;20069;-82
2023/01/22 05:11:54;;;;;;;0.95;0.95;;;;;;;-0.09;81.90;102422.75;5202611;28;20041;-82
2023/01/22 05:14:24;;;;;;;0.75;0.75;;;;;;;0.13;81.87;102428.03;5215221;28;20040;-82
2023/01/22 05:16:55;;;;;;;1.25;1.23;;;;;;;0.15;81.73;102428.97;5205237;28;20578;-82
2023/01/22 05:19:25;;;;;;;0.40;0.40;;;;;;;-0.03;82.20;102430.75;5199977;28;20033;-83
2023/01/22 05:21:56;;;;;;;0.47;0.47;;;;;;;0.06;82.21;102430.25;5199752;28;20045;-83
2023/01/22 05:24:27;;;;;;;1.02;0.88;;;;;;;0.02;82.81;102430.97;5202376;28;20057;-83
2023/01/22 05:26:57;;;;;;;0.77;0.75;;;;;;;-0.05;83.10;102430.69;5201030;28;20084;-82
2023/01/22 05:29:28;;;;;;;5.43;2.65;;;;;;;-0.02;82.34;102420.50;5196122;28;20472;-82
2023/01/22 05:31:58;;;;;;;2.03;1.92;;;;;;;0.06;82.09;102423.41;5198772;28;20124;-81
2023/01/22 05:34:29;;;;;;;1.02;1.02;;;;;;;0.08;82.18;102420.91;5212488;28;20093;-82
2023/01/22 05:36:59;;;;;;;1.42;1.42;;;;;;;0.22;82.14;102416.34;5228831;28;20041;-81
2023/01/22 05:39:30;;;;;;;2.97;2.78;;;;;;;0.23;81.90;102429.28;5202733;28;20037;-83
2023/01/22 05:42:00;;;;;;;1.17;1.17;;;;;;;0.13;82.43;102438.34;5185782;28;20427;-82
2023/01/22 05:44:31;;;;;;;1.20;1.20;;;;;;;0.02;82.88;102433.53;5186020;28;20021;-81
2023/01/22 05:47:01;;;;;;;0.88;0.88;;;;;;;0.00;82.69;102430.91;5180779;28;20274;-81
2023/01/22 05:49:32;;;;;;;1.25;1.25;;;;;;;0.18;82.06;102435.06;5181069;28;20078;-81
2023/01/22 05:52:02;;;;;;;0.40;0.40;;;;;;;0.13;81.93;102427.13;5208808;28;20399;-82
2023/01/22 05:54:33;;;;;;;0.63;0.63;;;;;;;0.07;82.83;102426.88;5214182;28;20041;-81
2023/01/22 05:57:03;;;;;;;0.40;0.40;;;;;;;0.06;82.86;102430.25;5182105;28;20452;-82
2023/01/22 05:59:34;;;;;;;2.10;1.90;;;;;;;0.02;83.05;102436.13;5194395;28;20072;-82
2023/01/22 06:02:05;;;;;;;1.80;1.70;;;;;;;0.11;82.17;102433.94;5209328;28;20045;-83
2023/01/22 06:04:35;;;;;;;1.17;1.15;;;;;;;0.17;82.22;102434.19;5204600;28;20033;-82
2023/01/22 06:07:05;;;;;;;1.48;1.48;;;;;;;0.12;82.33;102439.16;5228566;28;20053;-81
2023/01/22 06:09:36;;;;;;;0.63;0.63;;;;;;;0.18;82.53;102435.97;5192196;28;20029;-83
2023/01/22 06:12:06;;;;;;;0.60;0.60;;;;;;;0.18;81.97;102441.13;5185687;28;20562;-82
2023/01/22 06:14:37;;;;;;;1.10;1.10;;;;;;;0.09;82.66;102440.72;5184013;28;20044;-83
2023/01/22 06:17:07;;;;;;;0.50;0.50;;;;;;;0.22;82.12;102432.69;5196106;28;20068;-83
2023/01/22 06:19:38;;;;;;;1.98;1.88;;;;;;;0.23;82.01;102439.63;5203204;28;20052;-85
2023/01/22 06:22:08;;;;;;;0.52;0.52;;;;;;;0.11;82.63;102444.28;5204931;28;20060;-83
2023/01/22 06:24:39;;;;;;;0.50;0.50;;;;;;;0.11;82.30;102445.13;5183010;28;20069;-82
2023/01/22 06:27:09;;;;;;;0.52;0.52;;;;;;;0.16;82.93;102437.59;5196867;28;20478;-82
2023/01/22 06:29:40;;;;;;;0.52;0.52;;;;;;;0.24;82.44;102438.81;5212856;28;20041;-82
2023/01/22 06:32:10;;;;;;;1.33;1.30;;;;;;;0.26;82.29;102446.63;5178454;28;20554;-83
2023/01/22 06:34:41;;;;;;;5.00;3.60;;;;;;;0.22;82.08;102452.47;5182812;28;20056;-83
2023/01/22 06:37:11;;;;;;;1.13;1.13;;;;;;;0.25;82.05;102453.50;5197425;28;20053;-83
2023/01/22 06:39:42;;;;;;;1.70;1.60;;;;;;;0.28;82.10;102453.63;5188895;28;20034;-86
2023/01/22 06:42:12;;;;;;;0.47;0.47;;;;;;;0.25;81.95;102448.31;5200445;28;20037;-85
2023/01/22 06:44:43;;;;;;;0.60;0.60;;;;;;;0.29;82.14;102452.78;5204165;28;20075;-86
2023/01/22 06:47:13;;;;;;;1.85;1.75;;;;;;;0.07;83.55;102452.69;5200796;28;20056;-85
2023/01/22 06:49:44;;;;;;;0.55;0.55;;;;;;;0.26;82.33;102451.78;5187376;28;20499;-84
2023/01/22 06:52:14;;;;;;;0.77;0.77;;;;;;;0.24;82.37;102461.19;5187134;28;20051;-84
2023/01/22 06:54:45;;;;;;;0.93;0.93;;;;;;;0.27;82.20;102450.97;5203902;28;20235;-87
2023/01/22 06:57:15;;;;;;;1.85;1.48;;;;;;;0.26;82.60;102455.25;5187669;28;20049;-86
2023/01/22 06:59:46;;;;;;;0.70;0.70;;;;;;;0.31;82.82;102458.91;5187191;28;20128;-84
2023/01/22 07:02:18;;;;;;;1.27;1.27;;;;;;;0.30;82.10;102451.97;5201201;28;20037;-84
2023/01/22 07:04:48;;;;;;;0.60;0.60;;;;;;;0.43;81.89;102455.09;5187031;28;20036;-86
2023/01/22 07:07:19;;;;;;;3.40;1.65;;;;;;;0.42;81.93;102458.50;5184564;28;20041;-86
2023/01/22 07:09:49;;;;;;;2.15;2.05;;;;;;;0.43;81.90;102457.69;5189502;28;20029;-86
2023/01/22 07:12:20;;;;;;;0.60;0.60;;;;;;;0.44;81.88;102452.56;5189638;28;20056;-86
2023/01/22 07:14:50;;;;;;;2.30;2.15;;;;;;;0.48;81.51;102456.16;5186238;28;20025;-84
2023/01/22 07:17:21;;;;;;;0.45;0.45;;;;;;;0.46;81.59;102462.97;5176377;28;20084;-86
2023/01/22 07:19:51;;;;;;;0.65;0.65;;;;;;;0.50;81.34;102459.72;5190536;28;20025;-85
2023/01/22 07:22:22;;;;;;;1.75;1.20;;;;;;;0.53;81.29;102458.94;5187505;28;20450;-86
2023/01/22 07:24:53;;;;;;;0.90;0.90;;;;;;;0.50;81.36;102466.59;5190097;28;20432;-84
2023/01/22 07:27:23;;;;;;;1.38;1.27;;;;;;;0.47;82.16;102465.63;5202118;28;20464;-84
2023/01/22 07:29:53;;;;;;;0.50;0.50;;;;;;;0.48;81.70;102474.25;5187997;28;20473;-87
2023/01/22 07:32:24;;;;;;;2.05;1.95;;;;;;;0.43;81.54;102475.75;5186892;28;20056;-88
2023/01/22 07:34:54;;;;;;;0.90;0.90;;;;;;;0.47;82.25;102481.13;5186291;28;20488;-87
2023/01/22 07:37:25;;;;;;;0.93;0.93;;;;;;;0.58;81.32;102489.31;5181193;28;20039;-86
2023/01/22 07:39:55;;;;;;;0.40;0.40;;;;;;;0.56;81.14;102490.94;5187316;28;20083;-85
2023/01/22 07:42:26;;;;;;;2.00;1.90;;;;;;;0.54;81.40;102490.00;5185892;28;20093;-87
2023/01/22 07:44:56;;;;;;;2.00;1.90;;;;;;;0.59;81.68;102491.09;5193586;28;20033;-87
2023/01/22 07:47:27;;;;;;;0.60;0.60;;;;;;;0.57;81.63;102500.47;5206978;28;20041;-86
2023/01/22 07:49:57;;;;;;;0.90;0.90;;;;;;;0.57;81.27;102497.91;5186488;28;20503;-89
2023/01/22 07:52:27;;;;;;;0.50;0.50;;;;;;;0.62;81.09;102501.53;5191597;28;20226;-87
2023/01/22 07:54:58;;;;;;;1.73;1.63;;;;;;;0.53;81.30;102506.34;5205212;28;20033;-84
2023/01/22 07:57:28;;;;;;;0.70;0.70;;;;;;;0.52;81.73;102501.09;5203020;28;20412;-85
2023/01/22 07:59:59;;;;;;;0.45;0.45;;;;;;;0.61;81.43;102499.81;5215105;28;20037;-86
2023/01/22 08:02:29;;;;;;;0.50;0.50;;;;;;;0.53;82.01;102500.28;5214115;28;20087;-87
2023/01/22 08:05:01;;;;;;;0.55;0.55;;;;;;;0.63;81.38;102503.31;5187815;28;20037;-84
2023/01/22 08:07:31;;;;;;;0.82;0.82;;;;;;;0.54;81.75;102504.63;5183785;28;20033;-85
2023/01/22 08:10:02;;;;;;;0.60;0.60;;;;;;;0.61;81.71;102509.25;5201267;28;20029;-84
2023/01/22 08:12:32;;;;;;;1.98;1.88;;;;;;;0.45;81.84;102512.88;5182742;28;20075;-84
2023/01/22 08:15:03;;;;;;;0.68;0.68;;;;;;;0.56;82.22;102511.63;5219914;28;20033;-86
2023/01/22 08:17:34;;;;;;;0.98;0.98;;;;;;;0.67;81.60;102506.03;5186780;28;20040;-85
2023/01/22 08:20:07;;;;;;;0.80;0.80;;;;;;;0.62;81.48;102511.88;5174113;28;20299;-88
2023/01/22 08:22:37;;;;;;;2.03;0.82;;;;;;;0.72;81.06;102512.28;5188646;28;20072;-87
2023/01/22 08:25:08;;;;;;;1.50;1.48;;;;;;;0.64;81.32;102509.38;5191924;28;20037;-83
2023/01/22 08:27:39;;;;;;;1.45;1.40;;;;;;;0.49;82.08;102509.59;5205231;28;20062;-86
2023/01/22 08:30:10;;;;;;;0.85;0.85;;;;;;;0.71;81.39;102508.81;5204341;28;20054;-87
2023/01/22 08:32:43;;;;;;;0.45;0.45;;;;;;;0.49;81.94;102509.59;5188463;28;20045;-86
2023/01/22 08:35:14;;;;;;;0.60;0.57;;;;;;;0.72;81.16;102515.75;5182861;28;20435;-87
2023/01/22 08:37:44;;;;;;;0.68;0.68;;;;;;;0.73;81.55;102524.38;5198845;28;20053;-84
2023/01/22 08:40:17;;;;;;;0.68;0.68;;;;;;;0.70;81.39;102517.38;5184213;28;20042;-88
2023/01/22 08:42:51;;;;;;;0.95;0.95;;;;;;;0.66;81.70;102517.19;5186867;28;20041;-87
2023/01/22 08:45:22;;;;;;;0.68;0.68;;;;;;;0.73;81.21;102514.03;5186110;28;20029;-82
2023/01/22 08:47:58;;;;;;;0.90;0.90;;;;;;;0.71;81.45;102524.31;5196571;28;20041;-85
2023/01/22 08:50:28;;;;;;;0.50;0.50;;;;;;;0.75;81.50;102517.59;5198702;28;20044;-83
2023/01/22 08:52:59;;;;;;;1.13;1.13;;;;;;;0.66;82.09;102517.19;5196392;28;20046;-85
2023/01/22 08:55:29;;;;;;;1.02;1.02;;;;;;;0.69;81.55;102527.66;5188089;28;20029;-86
2023/01/22 08:58:00;;;;;;;1.13;1.13;;;;;;;0.68;82.15;102525.91;5180602;28;20068;-84
2023/01/22 09:00:31;;;;;;;0.95;0.95;;;;;;;0.65;81.72;102520.59;5178965;28;20026;-82
2023/01/22 09:03:01;;;;;;;1.05;1.00;;;;;;;0.71;82.37;102524.31;5189400;28;20053;-82
2023/01/22 09:05:31;;;;;;;1.17;1.08;;;;;;;0.73;81.95;102519.22;5199184;28;20060;-83
2023/01/22 09:08:02;;;;;;;0.95;0.95;;;;;;;0.72;81.40;102527.78;5179607;28;20038;-88
2023/01/22 09:10:33;;;;;;;0.70;0.70;;;;;;;0.78;81.46;102520.31;5194776;28;20503;-83
2023/01/22 09:13:03;;;;;;;0.70;0.70;;;;;;;0.50;82.84;102519.13;5196287;28;20045;-83
2023/01/22 09:18:13;;;;;;;1.20;1.20;;;;;;;0.65;82.41;102512.84;5188643;28;20419;-84
2023/01/22 09:20:44;;;;;;;1.05;1.05;;;;;;;0.57;81.99;102512.53;5182779;28;20125;-85
2023/01/22 09:23:15;;;;;;;0.60;0.60;;;;;;;0.70;81.56;102516.53;5217452;28;20128;-83
2023/01/22 09:25:45;;;;;;;1.65;1.35;;;;;;;0.79;81.75;102516.88;5185977;28;20081;-84
2023/01/22 09:28:19;;;;;;;1.40;1.30;;;;;;;0.79;81.46;102532.38;5199887;28;20153;-84
2023/01/22 09:30:49;;;;;;;0.65;0.65;;;;;;;0.71;81.74;102532.06;5200241;28;20029;-85
2023/01/22 09:33:20;;;;;;;0.85;0.82;;;;;;;0.84;81.17;102528.31;5184654;28;21677;-85
2023/01/22 09:35:51;;;;;;;4.00;1.17;;;;;;;0.87;81.15;102528.41;5192313;28;20025;-85
2023/01/22 09:38:21;;;;;;;1.88;1.77;;;;;;;0.76;81.91;102540.03;5187541;28;20116;-86
2023/01/22 09:41:00;;;;;;;0.50;0.50;;;;;;;0.81;82.01;102537.63;5192662;28;20029;-83
2023/01/22 09:43:38;;;;;;;0.40;0.40;;;;;;;0.90;81.30;102543.19;5200352;28;20038;-84
2023/01/22 09:46:17;;;;;;;1.77;1.10;;;;;;;0.91;80.83;102539.81;5178543;28;20025;-83
2023/01/22 09:48:55;;;;;;;0.60;0.60;;;;;;;0.84;81.46;102548.09;5198652;28;20042;-83
2023/01/22 09:51:26;;;;;;;0.60;0.60;;;;;;;0.83;81.01;102546.34;5196196;28;20040;-83
2023/01/22 09:54:14;;;;;;;0.70;0.70;;;;;;;0.69;82.27;102553.50;5195472;28;20060;-84
2023/01/22 09:56:49;;;;;;;0.50;0.50;;;;;;;0.82;82.09;102555.78;5175324;28;20083;-83
2023/01/22 09:59:25;;;;;;;1.38;1.27;;;;;;;0.72;81.92;102548.44;5177819;28;20083;-83
2023/01/22 10:02:07;;;;;;;0.93;0.90;;;;;;;0.92;81.26;102547.59;5194953;28;20041;-83
2023/01/22 10:04:44;;;;;;;0.40;0.40;;;;;;;0.81;82.03;102548.84;5182611;28;20025;-83
2023/01/22 10:07:25;;;;;;;0.85;0.85;;;;;;;0.93;81.64;102548.47;5177134;28;20132;-83
2023/01/22 10:10:01;;;;;;;0.60;0.60;;;;;;;0.88;81.11;102543.13;5178838;28;20310;-84
2023/01/22 10:12:31;;;;;;;2.80;2.55;;;;;;;0.86;81.74;102538.69;5178991;28;20103;-84
2023/01/22 10:15:02;;;;;;;0.68;0.68;;;;;;;0.84;82.18;102540.34;5199796;28;21770;-86
2023/01/22 10:17:40;;;;;;;1.20;1.15;;;;;;;0.97;82.01;102539.16;5161413;28;20356;-86
2023/01/22 10:20:23;;;;;;;6.03;3.05;;;;;;;0.89;81.84;102534.53;5187561;28;20025;-84
2023/01/22 10:23:08;;;;;;;0.40;0.40;;;;;;;0.87;82.54;102533.59;5166991;28;20041;-84
2023/01/22 10:25:44;;;;;;;1.55;1.50;;;;;;;0.90;82.23;102525.09;5207383;28;20144;-82
2023/01/22 10:28:22;;;;;;;1.48;1.38;;;;;;;1.00;82.02;102529.81;5171732;28;20037;-83
2023/01/22 10:30:57;;;;;;;0.50;0.50;;;;;;;1.00;81.79;102529.81;5195344;28;20036;-83
2023/01/22 10:33:28;;;;;;;1.02;1.02;;;;;;;0.98;81.69;102531.47;5188238;28;20292;-83
2023/01/22 10:35:58;;;;;;;1.55;1.45;;;;;;;0.90;82.21;102533.72;5178511;28;20195;-83
2023/01/22 10:38:31;;;;;;;5.38;2.80;;;;;;;1.10;81.69;102525.94;5182064;28;20485;-84
2023/01/22 10:41:03;;;;;;;1.03;1.03;;;;;;;0.98;82.24;102528.00;5181045;28;20069;-84
2023/01/22 10:43:38;;;;;;;0.70;0.70;;;;;;;1.00;82.21;102529.81;5188421;28;20288;-86
2023/01/22 10:46:21;;;;;;;1.27;1.23;;;;;;;0.92;81.91;102521.75;5202199;28;20032;-87
2023/01/22 10:49:00;;;;;;;0.47;0.47;;;;;;;1.06;81.64;102524.03;5201212;28;20045;-84
2023/01/22 10:51:39;;;;;;;2.70;2.60;;;;;;;1.10;81.40;102524.22;5177890;28;20049;-84
2023/01/22 10:54:30;;;;;;;0.65;0.65;;;;;;;1.00;82.13;102523.78;5182109;28;20037;-83
2023/01/22 10:57:15;;;;;;;1.02;1.02;;;;;;;0.97;82.75;102529.72;5183500;28;20129;-85
2023/01/22 10:59:51;;;;;;;1.38;1.38;;;;;;;1.07;82.75;102538.72;5200755;28;20049;-87
2023/01/22 11:02:24;;;;;;;0.70;0.70;;;;;;;1.12;82.35;102534.59;5211711;28;20072;-83
2023/01/22 11:05:05;;;;;;;;;;;;;;;1.29;81.54;102532.72;5193754;28;20032;-84
2023/01/22 11:07:42;;;;;;;1.17;1.17;;;;;;;1.10;81.86;102531.97;5195229;28;20387;-84
2023/01/22 11:10:51;;;;;;;1.20;1.20;;;;;;;1.23;81.58;102523.00;5181726;28;20277;-88
2023/01/22 11:13:37;;;;;;;0.90;0.90;;;;;;;1.29;81.52;102521.47;5171634;28;20037;-83
2023/01/22 11:16:20;;;;;;;0.73;0.73;;;;;;;1.21;82.11;102524.66;5194943;28;20370;-85
2023/01/22 11:19:04;;;;;;;1.48;1.45;;;;;;;1.24;81.83;102516.16;5176914;28;20080;-83
2023/01/22 11:21:44;;;;;;;1.30;1.30;;;;;;;1.12;82.42;102513.94;5178272;28;20030;-86
2023/01/22 11:24:48;;;;;;;1.25;1.25;;;;;;;1.27;81.54;102513.66;5182590;28;20037;-86
2023/01/22 11:27:51;;;;;;;1.25;1.20;;;;;;;1.20;81.96;102517.69;5185329;28;20051;-86
2023/01/22 11:30:42;;;;;;;1.33;1.25;;;;;;;1.31;81.78;102518.16;5175461;28;20029;-86
2023/01/22 11:33:51;;;;;;;1.05;1.05;;;;;;;1.33;81.62;102518.22;5178947;28;20057;-84
2023/01/22 11:36:32;;;;;;;0.65;0.65;;;;;;;1.30;81.45;102518.06;5180999;28;20037;-85
2023/01/22 11:39:23;;;;;;;1.77;1.67;;;;;;;1.36;81.43;102510.59;5186891;28;20117;-84
2023/01/22 11:42:01;;;;;;;2.05;1.50;;;;;;;1.36;81.56;102508.00;5169701;28;20034;-84
2023/01/22 11:44:54;;;;;;;0.82;0.82;;;;;;;1.33;81.70;102508.75;5175549;28;20033;-84
2023/01/22 11:48:02;;;;;;;0.82;0.82;;;;;;;1.31;81.90;102506.91;5177421;28;20045;-84
2023/01/22 11:50:45;;;;;;;1.42;1.38;;;;;;;1.19;81.59;102507.31;5184500;28;20388;-84
2023/01/22 11:53:42;;;;;;;1.38;1.35;;;;;;;1.30;82.11;102507.72;5202696;28;20582;-84
2023/01/22 11:56:49;;;;;;;1.33;1.33;;;;;;;1.40;81.66;102500.44;5178618;28;20469;-84
2023/01/22 11:59:47;;;;;;;0.45;0.45;;;;;;;1.45;81.76;102505.75;5178575;28;20425;-83
2023/01/22 12:02:55;;;;;;;2.05;1.95;;;;;;;1.49;81.58;102510.25;5175775;28;20087;-82
2023/01/22 12:05:32;;;;;;;1.13;1.13;;;;;;;1.53;81.40;102513.81;5175818;28;20043;-83
2023/01/22 12:08:07;;;;;;;0.57;0.57;;;;;;;1.49;81.56;102499.88;5174780;28;20263;-84
2023/01/22 12:10:44;;;;;;;1.38;1.33;;;;;;;1.45;81.85;102510.06;5181940;28;20528;-86
2023/01/22 12:13:33;;;;;;;1.15;1.15;;;;;;;1.55;81.48;102515.66;5176379;28;20049;-88
2023/01/22 12:16:31;;;;;;;1.00;1.00;;;;;;;1.60;81.21;102517.53;5183445;28;20037;-86
2023/01/22 12:19:39;;;;;;;1.25;1.25;;;;;;;1.48;81.72;102510.19;5147589;28;20049;-85
2023/01/22 12:22:31;;;;;;;1.65;1.55;;;;;;;1.42;81.47;102506.53;5195870;28;20067;-84